Jane — WCY3322 — position and weather

sailwx.info

Track history (hours):
 
Tides and Currents Weather Stations Pressure Air Temp Water Temp Dewpoint Dewpoint Depression Visibility Wind Speed Wind Dir Waves Ship Positions

Jane

Owner: DUARD EYEMARD TOWING LLC, CUT OFF, LA. More information available from US FCC via Universal Licensing System and Coast Guard Vessel Documentation Center.

Last reported at 2018-Jul-21 05:55 UTC. Time now 2018-Jul-22 12:55 UTC.
Position N 29°40' W 091°27'.

Length 21 m; draft 2 m.

Type: Tug. MMSI: 366748260.

Date/timePositionNaut miles runAvg speedWind from/ knotsBaromVisibWave heightAir tempDewpointWater temp
2018-Jul-21 05:55N 29°40' W 091°27'2 4.5
2018-Jul-21 05:28N 29°41' W 091°30'2 4.6
2018-Jul-21 04:55N 29°43' W 091°32'1 3.1
2018-Jul-21 04:28N 29°44' W 091°33'  
2018-Jul-17 02:28N 29°30' W 090°43'4 7.8
2018-Jul-17 02:00N 29°34' W 090°43'2 4.0
2018-Jul-17 01:29N 29°33' W 090°45'  
2018-Jul-13 20:07N 29°32' W 090°46'1 4.3
2018-Jul-13 19:58N 29°33' W 090°45'1 3.2
2018-Jul-13 19:30N 29°34' W 090°44'1 2.0
2018-Jul-13 19:00N 29°34' W 090°43'2 4.3
2018-Jul-13 18:30N 29°32' W 090°42'8 0.2
2018-Jul-11 18:58N 29°34' W 090°33'3 7.5
2018-Jul-11 18:30N 29°35' W 090°37'3 5.3
2018-Jul-11 18:00N 29°36' W 090°40'0 0.1
2018-Jul-11 17:27N 29°36' W 090°40'2 3.5
2018-Jul-11 17:00N 29°37' W 090°41'2 3.3
2018-Jul-11 16:30N 29°35' W 090°43'2 3.7
2018-Jul-11 16:00N 29°34' W 090°44'2 4.9
2018-Jul-11 15:30N 29°32' W 090°46'  
Track history (hours):
 
Tides and Currents Weather Stations Pressure Air Temp Water Temp Dewpoint Dewpoint Depression Visibility Wind Speed Wind Dir Waves Ship Positions

Jane

Owner: DUARD EYEMARD TOWING LLC, CUT OFF, LA. More information available from US FCC via Universal Licensing System and Coast Guard Vessel Documentation Center.

Last reported at 2018-Jul-21 05:55 UTC. Time now 2018-Jul-22 12:55 UTC.
Position N 29°40' W 091°27'.

Length 21 m; draft 2 m.

Type: Tug. MMSI: 366748260.

Date/timePositionNaut miles runAvg speedWind from/ knotsBaromVisibWave heightAir tempDewpointWater temp
2018-Jul-21 05:55N 29°40' W 091°27'2 4.5
2018-Jul-21 05:28N 29°41' W 091°30'2 4.6
2018-Jul-21 04:55N 29°43' W 091°32'1 3.1
2018-Jul-21 04:28N 29°44' W 091°33'  
2018-Jul-17 02:28N 29°30' W 090°43'4 7.8
2018-Jul-17 02:00N 29°34' W 090°43'2 4.0
2018-Jul-17 01:29N 29°33' W 090°45'  
2018-Jul-13 20:07N 29°32' W 090°46'1 4.3
2018-Jul-13 19:58N 29°33' W 090°45'1 3.2
2018-Jul-13 19:30N 29°34' W 090°44'1 2.0
2018-Jul-13 19:00N 29°34' W 090°43'2 4.3
2018-Jul-13 18:30N 29°32' W 090°42'8 0.2
2018-Jul-11 18:58N 29°34' W 090°33'3 7.5
2018-Jul-11 18:30N 29°35' W 090°37'3 5.3
2018-Jul-11 18:00N 29°36' W 090°40'0 0.1
2018-Jul-11 17:27N 29°36' W 090°40'2 3.5
2018-Jul-11 17:00N 29°37' W 090°41'2 3.3
2018-Jul-11 16:30N 29°35' W 090°43'2 3.7
2018-Jul-11 16:00N 29°34' W 090°44'2 4.9
2018-Jul-11 15:30N 29°32' W 090°46'  

Dump ship's entire track history